Time;durP1;ratioP1;P1;durP2;ratioP2;P2;SDS_P1;SDS_P2;PMS_P1;PMS_P2;Temp;Humidity;BMP_temperature;BMP_pressure;BME280_temperature;BME280_humidity;BME280_pressure;Samples;Min_cycle;Max_cycle;Signal;HPM_P1;HPM_P2
2022/05/03 00:00:35;;;;;;;1.40;1.10;;;15.40;99.90;;;;;;4998838;28;20172;-82
2022/05/03 00:03:20;;;;;;;0.60;0.60;;;15.50;99.90;;;;;;5004537;28;20207;-82
2022/05/03 00:06:12;;;;;;;0.67;0.63;;;15.60;99.90;;;;;;4997615;28;20208;-82
2022/05/03 00:08:42;;;;;;;1.10;0.50;;;15.50;99.90;;;;;;4999964;28;20279;-82
2022/05/03 00:11:39;;;;;;;0.53;0.50;;;15.40;99.90;;;;;;5014609;28;20201;-82
2022/05/03 00:14:16;;;;;;;0.53;0.53;;;15.40;99.90;;;;;;4998468;28;20191;-82
2022/05/03 00:16:44;;;;;;;1.27;0.70;;;15.40;99.90;;;;;;4997538;28;20187;-82
2022/05/03 00:19:10;;;;;;;0.70;0.70;;;15.40;99.90;;;;;;4998011;28;20536;-82
2022/05/03 00:21:37;;;;;;;0.90;0.80;;;15.40;99.90;;;;;;4998889;28;21288;-82
2022/05/03 00:24:05;;;;;;;0.70;0.60;;;15.30;99.90;;;;;;4995445;28;20209;-83
2022/05/03 00:26:31;;;;;;;1.17;0.80;;;15.30;99.90;;;;;;4996656;28;20284;-82
2022/05/03 00:28:58;;;;;;;0.93;0.77;;;15.20;99.90;;;;;;5011380;28;20218;-82
2022/05/03 00:31:25;;;;;;;0.93;0.70;;;15.20;99.90;;;;;;5004346;28;20203;-83
2022/05/03 00:33:52;;;;;;;0.57;0.50;;;15.10;99.90;;;;;;5002671;28;20183;-82
2022/05/03 00:36:18;;;;;;;0.73;0.63;;;15.10;99.90;;;;;;5002791;28;20190;-82
2022/05/03 00:38:43;;;;;;;1.93;1.07;;;15.10;99.90;;;;;;4999543;28;20738;-82
2022/05/03 00:41:14;;;;;;;1.10;1.00;;;15.10;99.90;;;;;;4998561;28;20221;-82
2022/05/03 00:43:50;;;;;;;0.77;0.77;;;15.10;99.90;;;;;;4993526;28;20245;-82
2022/05/03 00:46:19;;;;;;;0.73;0.67;;;15.10;99.90;;;;;;5014158;28;20209;-82
2022/05/03 00:48:56;;;;;;;0.53;0.50;;;15.20;99.90;;;;;;5002129;28;20183;-83
2022/05/03 00:51:35;;;;;;;0.20;0.20;;;15.20;99.90;;;;;;4997012;28;20210;-82
2022/05/03 00:54:19;;;;;;;1.00;0.50;;;15.20;99.90;;;;;;5007680;28;20891;-83
2022/05/03 00:57:03;;;;;;;1.60;0.60;;;15.30;99.90;;;;;;5002607;28;20192;-83
2022/05/03 00:59:32;;;;;;;0.77;0.50;;;15.30;99.90;;;;;;5008360;28;20179;-82
2022/05/03 01:02:06;;;;;;;0.60;0.60;;;15.30;99.90;;;;;;5002254;28;20199;-82
2022/05/03 01:05:07;;;;;;;0.30;0.30;;;15.40;99.90;;;;;;5002353;28;20186;-83
2022/05/03 01:07:51;;;;;;;0.73;0.70;;;15.50;99.90;;;;;;5001766;28;20245;-83
2022/05/03 01:10:41;;;;;;;0.20;0.20;;;15.60;99.90;;;;;;5017087;28;20555;-82
2022/05/03 01:13:31;;;;;;;0.43;0.43;;;15.60;99.90;;;;;;5000366;28;20716;-82
2022/05/03 01:16:10;;;;;;;0.73;0.73;;;15.40;99.90;;;;;;5000853;28;20194;-82
2022/05/03 01:19:31;;;;;;;0.60;0.60;;;15.40;99.90;;;;;;5016994;28;20285;-82
2022/05/03 01:22:02;;;;;;;0.40;0.40;;;15.40;99.90;;;;;;4963408;28;20238;-82
2022/05/03 01:24:37;;;;;;;0.30;0.30;;;15.30;99.90;;;;;;4986738;28;20196;-82
2022/05/03 01:27:49;;;;;;;0.40;0.40;;;15.40;99.90;;;;;;4995107;28;20668;-82
2022/05/03 01:30:16;;;;;;;0.57;0.57;;;15.40;99.90;;;;;;5016726;28;20188;-82
2022/05/03 01:32:44;;;;;;;0.57;0.57;;;15.50;99.90;;;;;;5006667;28;20295;-82
2022/05/03 01:35:12;;;;;;;0.30;0.30;;;15.50;99.90;;;;;;5000304;28;20195;-82
2022/05/03 01:38:01;;;;;;;0.50;0.50;;;15.50;99.90;;;;;;5007377;28;20195;-82
2022/05/03 01:40:46;;;;;;;0.67;0.67;;;15.40;99.90;;;;;;5001030;28;20250;-82
2022/05/03 01:43:15;;;;;;;1.37;0.60;;;15.30;99.90;;;;;;4999297;28;20658;-82
2022/05/03 01:46:16;;;;;;;0.83;0.30;;;15.30;99.90;;;;;;5006164;28;20236;-82
2022/05/03 01:52:16;;;;;;;1.67;1.27;;;15.00;99.90;;;;;;5000958;28;20327;-82
2022/05/03 01:55:07;;;;;;;0.60;0.60;;;14.80;99.90;;;;;;4998975;28;21008;-82
2022/05/03 01:58:07;;;;;;;0.70;0.70;;;14.70;99.90;;;;;;4998931;28;20198;-82
2022/05/03 02:00:36;;;;;;;0.60;0.50;;;14.60;99.90;;;;;;4993209;28;20285;-82
2022/05/03 02:03:04;;;;;;;0.90;0.90;;;14.60;99.90;;;;;;4999634;28;22394;-82
2022/05/03 02:06:02;;;;;;;2.53;0.70;;;14.60;99.90;;;;;;5015102;28;20582;-82
2022/05/03 02:08:56;;;;;;;0.40;0.40;;;14.60;99.90;;;;;;5001071;28;20207;-82
2022/05/03 02:11:40;;;;;;;0.67;0.50;;;14.60;99.90;;;;;;4996050;28;20313;-82
2022/05/03 02:17:31;;;;;;;0.60;0.60;;;14.80;99.90;;;;;;5007086;28;20667;-82
2022/05/03 02:20:14;;;;;;;0.43;0.43;;;14.90;99.90;;;;;;5000335;28;20193;-82
2022/05/03 02:23:13;;;;;;;0.60;0.60;;;14.80;99.90;;;;;;4997981;28;20210;-82
2022/05/03 02:26:07;;;;;;;0.73;0.73;;;14.90;99.90;;;;;;5015725;28;20214;-82
2022/05/03 02:28:41;;;;;;;1.50;0.90;;;14.70;99.90;;;;;;5015986;28;20284;-82
2022/05/03 02:31:12;;;;;;;0.30;0.30;;;14.70;99.90;;;;;;5000023;28;20199;-82
2022/05/03 02:33:44;;;;;;;0.43;0.43;;;14.70;99.90;;;;;;4999544;28;20240;-82
2022/05/03 02:36:15;;;;;;;0.30;0.30;;;14.80;99.90;;;;;;5005341;28;20205;-82
2022/05/03 02:39:02;;;;;;;0.40;0.40;;;14.80;99.90;;;;;;4998383;28;20203;-82
2022/05/03 02:41:34;;;;;;;0.90;0.90;;;14.90;99.90;;;;;;4999881;28;20261;-83
2022/05/03 02:44:02;;;;;;;1.17;0.80;;;15.00;99.90;;;;;;4998580;28;20185;-82
2022/05/03 02:46:45;;;;;;;0.67;0.67;;;15.00;99.90;;;;;;4999762;28;20212;-82
2022/05/03 02:49:27;;;;;;;0.80;0.77;;;15.00;99.90;;;;;;5015034;28;20179;-82
2022/05/03 02:52:25;;;;;;;1.03;0.70;;;14.90;99.90;;;;;;4997889;28;20243;-82
2022/05/03 02:55:13;;;;;;;0.83;0.83;;;14.90;99.90;;;;;;4999635;28;20627;-82
2022/05/03 02:58:03;;;;;;;0.63;0.63;;;14.90;99.90;;;;;;5006195;28;21127;-82
2022/05/03 03:03:37;;;;;;;0.37;0.37;;;14.80;99.90;;;;;;4998103;28;20230;-82
2022/05/03 03:06:03;;;;;;;1.33;0.97;;;14.60;99.90;;;;;;5014495;28;20242;-81
2022/05/03 03:08:38;;;;;;;0.70;0.70;;;14.60;99.90;;;;;;5001276;28;20663;-82
2022/05/03 03:11:07;;;;;;;0.53;0.53;;;14.50;99.90;;;;;;5015295;28;20264;-82
2022/05/03 03:13:56;;;;;;;0.47;0.47;;;14.50;99.90;;;;;;4998672;28;20703;-82
2022/05/03 03:16:32;;;;;;;0.80;0.70;;;14.50;99.90;;;;;;5015013;28;20255;-82
2022/05/03 03:18:58;;;;;;;1.03;0.50;;;14.60;99.90;;;;;;5015478;28;20199;-82
2022/05/03 03:21:32;;;;;;;0.53;0.50;;;14.50;99.90;;;;;;4998830;28;21375;-81
2022/05/03 03:24:00;;;;;;;6.30;0.50;;;14.50;99.90;;;;;;4998970;28;20599;-81
2022/05/03 03:26:29;;;;;;;0.60;0.60;;;14.50;99.90;;;;;;5005390;28;20205;-82
2022/05/03 03:28:58;;;;;;;0.77;0.77;;;14.40;99.90;;;;;;5004850;28;20200;-81
2022/05/03 03:31:26;;;;;;;1.70;0.60;;;14.20;99.90;;;;;;5000086;28;20224;-82
2022/05/03 03:33:54;;;;;;;0.40;0.40;;;14.20;99.90;;;;;;5004156;28;20186;-82
2022/05/03 03:36:22;;;;;;;0.80;0.80;;;14.30;99.90;;;;;;4999553;28;20190;-82
2022/05/03 03:38:48;;;;;;;0.53;0.53;;;14.20;99.90;;;;;;5003776;28;20282;-82
2022/05/03 03:41:14;;;;;;;0.50;0.50;;;14.20;99.90;;;;;;4997886;28;20206;-82
2022/05/03 03:43:40;;;;;;;0.80;0.80;;;14.00;99.90;;;;;;5003643;28;20584;-82
2022/05/03 03:46:06;;;;;;;0.67;0.67;;;14.10;99.90;;;;;;5013923;28;20207;-82
2022/05/03 03:48:33;;;;;;;0.80;0.80;;;14.00;99.90;;;;;;5004555;28;20282;-82
2022/05/03 03:51:00;;;;;;;0.50;0.50;;;14.00;99.90;;;;;;5004075;28;20274;-82
2022/05/03 03:53:27;;;;;;;0.90;0.90;;;14.00;99.90;;;;;;5003780;28;20254;-83
2022/05/03 03:55:53;;;;;;;0.47;0.47;;;14.10;99.90;;;;;;4999480;28;20191;-82
2022/05/03 03:58:19;;;;;;;0.40;0.40;;;14.00;99.90;;;;;;5004131;28;20198;-82
2022/05/03 04:00:47;;;;;;;0.97;0.57;;;14.00;99.90;;;;;;4999742;28;20185;-82
2022/05/03 04:03:13;;;;;;;0.37;0.37;;;13.90;99.90;;;;;;5004502;28;20214;-82
2022/05/03 04:05:39;;;;;;;0.67;0.67;;;13.90;99.90;;;;;;5004237;28;20279;-82
2022/05/03 04:08:05;;;;;;;1.03;0.90;;;13.90;99.90;;;;;;5014760;28;20207;-82
2022/05/03 04:10:30;;;;;;;0.90;0.73;;;13.90;99.90;;;;;;5004035;28;20551;-82
2022/05/03 04:12:57;;;;;;;1.13;1.07;;;13.80;99.90;;;;;;5003356;28;20199;-82
2022/05/03 04:15:25;;;;;;;1.70;1.20;;;13.80;99.90;;;;;;5003964;28;20206;-82
2022/05/03 04:17:50;;;;;;;0.70;0.70;;;13.70;99.90;;;;;;5013377;28;20180;-83
2022/05/03 04:20:16;;;;;;;0.70;0.43;;;13.70;99.90;;;;;;5004247;28;20195;-82
2022/05/03 04:22:42;;;;;;;2.60;1.33;;;13.70;99.90;;;;;;5010328;28;20350;-82
2022/05/03 04:25:08;;;;;;;0.30;0.30;;;13.60;99.90;;;;;;4994474;28;20206;-82
2022/05/03 04:27:33;;;;;;;0.80;0.77;;;13.80;99.90;;;;;;5008943;28;20199;-82
2022/05/03 04:30:01;;;;;;;0.60;0.60;;;13.70;99.90;;;;;;5003079;28;20185;-81
2022/05/03 04:32:31;;;;;;;1.00;0.60;;;13.70;99.90;;;;;;5002846;28;20717;-82
2022/05/03 04:34:57;;;;;;;1.50;0.77;;;13.70;99.90;;;;;;5011835;28;20183;-82
2022/05/03 04:37:23;;;;;;;0.60;0.60;;;13.80;99.90;;;;;;4998332;28;20583;-82
2022/05/03 04:39:49;;;;;;;0.73;0.73;;;13.90;99.90;;;;;;5003979;28;20186;-82
2022/05/03 04:42:14;;;;;;;0.70;0.70;;;13.90;99.90;;;;;;5004625;28;21000;-82
2022/05/03 04:44:40;;;;;;;0.40;0.40;;;14.00;99.90;;;;;;4997843;28;20654;-82
2022/05/03 04:47:06;;;;;;;0.63;0.63;;;14.20;99.90;;;;;;5013546;28;20222;-82
2022/05/03 04:49:31;;;;;;;1.10;0.50;;;14.30;99.90;;;;;;5004651;28;20261;-81
2022/05/03 04:51:57;;;;;;;0.73;0.60;;;14.30;99.90;;;;;;4999755;28;20703;-82
2022/05/03 04:54:23;;;;;;;0.60;0.60;;;14.40;99.90;;;;;;5003299;28;20276;-82
2022/05/03 04:56:56;;;;;;;0.97;0.97;;;14.40;99.90;;;;;;4998877;28;20221;-83
2022/05/03 04:59:22;;;;;;;0.50;0.50;;;14.40;99.90;;;;;;4999373;28;20209;-82
2022/05/03 05:01:47;;;;;;;1.00;0.93;;;14.50;99.90;;;;;;5004559;28;20700;-82
2022/05/03 05:04:13;;;;;;;0.40;0.40;;;14.30;99.90;;;;;;5003903;28;20249;-82
2022/05/03 05:06:38;;;;;;;1.10;0.67;;;14.30;99.90;;;;;;5003785;28;20210;-82
2022/05/03 05:09:04;;;;;;;1.57;1.00;;;14.20;99.90;;;;;;5012184;28;20202;-83
2022/05/03 05:11:29;;;;;;;0.70;0.70;;;14.10;99.90;;;;;;4999499;28;20803;-80
2022/05/03 05:13:55;;;;;;;0.63;0.53;;;14.20;99.90;;;;;;4994865;28;20256;-81
2022/05/03 05:16:20;;;;;;;0.50;0.50;;;14.20;99.90;;;;;;4996392;28;20843;-80
2022/05/03 05:18:46;;;;;;;2.03;1.20;;;14.20;99.90;;;;;;4997882;28;20274;-80
2022/05/03 05:21:12;;;;;;;0.60;0.60;;;14.30;99.90;;;;;;4997796;28;20208;-81
2022/05/03 05:23:38;;;;;;;0.80;0.80;;;14.30;99.90;;;;;;5011391;28;20191;-83
2022/05/03 05:26:04;;;;;;;1.63;0.70;;;14.20;99.90;;;;;;5000882;28;20203;-84
2022/05/03 05:28:30;;;;;;;0.70;0.70;;;14.20;99.90;;;;;;4995444;28;20180;-84
2022/05/03 05:30:55;;;;;;;0.63;0.40;;;14.30;99.90;;;;;;5003621;28;20182;-84
2022/05/03 05:33:22;;;;;;;0.53;0.53;;;14.30;99.90;;;;;;5010927;28;20180;-84
2022/05/03 05:35:48;;;;;;;0.77;0.77;;;14.30;99.90;;;;;;4996577;28;20194;-83
2022/05/03 05:38:16;;;;;;;0.63;0.40;;;14.30;99.90;;;;;;5003957;28;21942;-84
2022/05/03 05:40:42;;;;;;;0.57;0.57;;;14.30;99.90;;;;;;5006035;28;20204;-84
2022/05/03 05:43:08;;;;;;;0.60;0.60;;;14.30;99.90;;;;;;5005878;28;20270;-84
2022/05/03 05:45:34;;;;;;;1.53;1.10;;;14.40;99.90;;;;;;4998283;28;20694;-83
2022/05/03 05:47:59;;;;;;;1.20;0.83;;;14.40;99.90;;;;;;5000288;28;20201;-83
2022/05/03 05:50:25;;;;;;;0.53;0.53;;;14.40;99.90;;;;;;5005584;28;20195;-84
2022/05/03 05:55:36;;;;;;;1.10;0.70;;;14.40;99.90;;;;;;5002062;28;20246;-82
2022/05/03 05:58:05;;;;;;;0.97;0.90;;;14.50;99.90;;;;;;5002714;28;20663;-82
2022/05/03 06:00:32;;;;;;;0.63;0.63;;;14.50;99.90;;;;;;5019244;28;20260;-82
2022/05/03 06:02:58;;;;;;;0.60;0.60;;;14.50;99.90;;;;;;5007916;28;20217;-82
2022/05/03 06:05:24;;;;;;;1.47;1.00;;;14.70;99.90;;;;;;5004870;28;20205;-81
2022/05/03 06:07:50;;;;;;;6.43;0.90;;;14.70;99.90;;;;;;5017650;28;20224;-82
2022/05/03 06:10:15;;;;;;;1.03;0.70;;;14.80;99.90;;;;;;5005911;28;20198;-82
2022/05/03 06:12:41;;;;;;;0.57;0.57;;;14.80;99.90;;;;;;5003327;28;20280;-82
2022/05/03 06:15:07;;;;;;;1.03;0.93;;;14.90;99.90;;;;;;5003030;28;20192;-82
2022/05/03 06:17:32;;;;;;;1.40;1.30;;;14.90;99.90;;;;;;5003453;28;20253;-82
2022/05/03 06:19:58;;;;;;;0.60;0.60;;;14.90;99.90;;;;;;5007163;28;20207;-82
2022/05/03 06:22:24;;;;;;;0.80;0.80;;;14.90;99.90;;;;;;5002152;28;20704;-82
2022/05/03 06:24:50;;;;;;;0.47;0.47;;;15.00;99.90;;;;;;5009816;28;20214;-82
2022/05/03 06:27:16;;;;;;;1.90;1.23;;;15.00;99.90;;;;;;5003912;28;20670;-82
2022/05/03 06:29:42;;;;;;;1.90;0.67;;;14.90;99.90;;;;;;5019365;28;20179;-82
2022/05/03 06:32:10;;;;;;;1.00;0.63;;;15.00;99.90;;;;;;5008615;28;20296;-81
2022/05/03 06:34:36;;;;;;;0.57;0.57;;;15.20;99.90;;;;;;5002907;28;20175;-80
2022/05/03 06:37:02;;;;;;;0.77;0.77;;;15.30;99.90;;;;;;5007789;28;20195;-80
2022/05/03 06:39:28;;;;;;;1.13;0.90;;;15.40;99.90;;;;;;4999136;28;21167;-81
2022/05/03 06:41:53;;;;;;;0.50;0.50;;;15.60;99.90;;;;;;4999889;28;20234;-80
2022/05/03 06:44:19;;;;;;;0.50;0.47;;;15.60;99.90;;;;;;5001116;28;20187;-80
2022/05/03 06:46:44;;;;;;;0.67;0.67;;;15.80;99.90;;;;;;5000589;28;20279;-80
2022/05/03 06:49:10;;;;;;;0.97;0.80;;;15.80;99.90;;;;;;5006453;28;20236;-80
2022/05/03 06:51:37;;;;;;;0.60;0.60;;;16.00;99.90;;;;;;5013228;28;20198;-80
2022/05/03 06:54:02;;;;;;;0.77;0.77;;;15.90;99.90;;;;;;4999154;28;20188;-80
2022/05/03 06:56:30;;;;;;;1.23;1.07;;;16.00;99.90;;;;;;5012625;28;20548;-80
2022/05/03 06:58:56;;;;;;;0.60;0.60;;;15.80;99.90;;;;;;4999424;28;20183;-79
2022/05/03 07:01:21;;;;;;;0.93;0.67;;;15.90;99.90;;;;;;5013488;28;20289;-79
2022/05/03 07:03:47;;;;;;;0.60;0.60;;;15.80;99.90;;;;;;4998943;28;20295;-80
2022/05/03 07:06:12;;;;;;;0.70;0.70;;;15.60;99.90;;;;;;5005769;28;20215;-80
2022/05/03 07:08:39;;;;;;;0.73;0.73;;;15.70;99.90;;;;;;5005341;28;20198;-79
2022/05/03 07:11:04;;;;;;;1.10;0.60;;;15.70;99.90;;;;;;5012748;28;20203;-80
2022/05/03 07:13:30;;;;;;;2.17;1.03;;;15.80;99.90;;;;;;4998352;28;20212;-80
2022/05/03 07:15:57;;;;;;;0.63;0.63;;;15.80;99.90;;;;;;5005607;28;20202;-80
2022/05/03 07:23:52;;;;;;;0.77;0.73;;;16.10;99.90;;;;;;4998641;28;20220;-80
2022/05/03 07:26:21;;;;;;;1.40;1.30;;;16.20;99.90;;;;;;5004592;28;20299;-80
2022/05/03 07:28:49;;;;;;;4.27;1.70;;;16.40;99.90;;;;;;4997247;28;20187;-79
2022/05/03 07:31:19;;;;;;;0.87;0.80;;;16.50;99.90;;;;;;4998877;28;20284;-80
2022/05/03 07:33:47;;;;;;;0.80;0.80;;;16.80;99.90;;;;;;4998395;28;20553;-80
2022/05/03 07:36:13;;;;;;;0.60;0.60;;;16.60;99.90;;;;;;5000425;28;20857;-80
2022/05/03 07:38:39;;;;;;;1.07;1.03;;;16.70;99.90;;;;;;4996971;28;20194;-79
2022/05/03 07:41:06;;;;;;;0.70;0.70;;;16.70;99.90;;;;;;5004395;28;20201;-80
2022/05/03 07:43:32;;;;;;;0.83;0.50;;;17.00;99.90;;;;;;5004193;28;20259;-80
2022/05/03 07:45:57;;;;;;;0.40;0.40;;;17.40;99.90;;;;;;5004378;28;20771;-80
2022/05/03 07:48:24;;;;;;;0.50;0.50;;;17.50;99.90;;;;;;4999088;28;20240;-79
2022/05/03 07:50:50;;;;;;;0.30;0.30;;;17.60;99.90;;;;;;5004227;28;20195;-80
2022/05/03 07:53:15;;;;;;;1.47;1.47;;;18.00;99.90;;;;;;5014075;28;20196;-80
2022/05/03 07:55:44;;;;;;;0.70;0.70;;;18.40;99.90;;;;;;5004128;28;21305;-79
2022/05/03 07:58:09;;;;;;;1.70;1.23;;;17.90;99.90;;;;;;5003695;28;20204;-80
2022/05/03 08:00:35;;;;;;;0.80;0.80;;;18.10;99.90;;;;;;5004875;28;20680;-80
2022/05/03 08:03:00;;;;;;;0.77;0.57;;;18.50;99.90;;;;;;5002975;28;20210;-80
2022/05/03 08:05:26;;;;;;;0.63;0.63;;;18.70;99.90;;;;;;5003577;28;20203;-80
2022/05/03 08:07:51;;;;;;;1.00;0.90;;;18.10;99.90;;;;;;4997603;28;20213;-79
2022/05/03 08:10:17;;;;;;;2.13;0.60;;;18.20;99.90;;;;;;5013836;28;20540;-80
2022/05/03 08:12:43;;;;;;;1.40;0.83;;;18.70;99.90;;;;;;5011662;28;20203;-80
2022/05/03 08:15:09;;;;;;;1.43;0.67;;;19.00;99.90;;;;;;4998430;28;20175;-80
2022/05/03 08:17:35;;;;;;;0.43;0.43;;;19.30;99.90;;;;;;5003818;28;20187;-80
2022/05/03 08:20:01;;;;;;;1.47;1.30;;;19.30;99.90;;;;;;4996105;28;20250;-80
2022/05/03 08:22:26;;;;;;;1.07;0.90;;;18.50;99.90;;;;;;4997930;28;20291;-80
2022/05/03 08:24:52;;;;;;;2.13;0.90;;;18.40;99.90;;;;;;5004397;28;20277;-80
2022/05/03 08:27:18;;;;;;;0.53;0.53;;;18.60;99.90;;;;;;4997258;28;20192;-80
2022/05/03 08:29:44;;;;;;;0.87;0.87;;;19.00;99.90;;;;;;4996845;28;20285;-80
2022/05/03 08:32:10;;;;;;;0.97;0.93;;;18.60;99.90;;;;;;4998015;28;20297;-79
2022/05/03 08:34:35;;;;;;;0.70;0.57;;;19.40;99.90;;;;;;4999193;28;20184;-80
2022/05/03 08:42:30;;;;;;;1.07;1.07;;;20.70;99.90;;;;;;4997843;28;20240;-80
2022/05/03 08:44:56;;;;;;;1.00;0.97;;;20.30;99.90;;;;;;4997502;28;20654;-80
2022/05/03 08:47:25;;;;;;;0.93;0.80;;;20.00;99.90;;;;;;5010475;28;20180;-80
2022/05/03 08:50:06;;;;;;;0.90;0.57;;;19.60;99.90;;;;;;5002868;28;20191;-80
2022/05/03 08:52:54;;;;;;;2.00;0.80;;;19.70;99.90;;;;;;5011499;28;20297;-79
2022/05/03 08:55:21;;;;;;;0.57;0.57;;;19.80;99.90;;;;;;4997721;28;20207;-79
2022/05/03 08:57:48;;;;;;;1.90;1.00;;;20.10;99.90;;;;;;4996678;28;20227;-79
2022/05/03 09:00:15;;;;;;;2.83;0.87;;;19.50;99.90;;;;;;5003271;28;20214;-80
2022/05/03 09:02:46;;;;;;;0.97;0.70;;;20.30;99.90;;;;;;5009667;28;20258;-80
2022/05/03 09:05:12;;;;;;;1.17;1.07;;;20.50;99.90;;;;;;4996861;28;20184;-80
2022/05/03 09:07:39;;;;;;;0.97;0.97;;;20.90;99.90;;;;;;4996962;28;20200;-80
2022/05/03 09:10:33;;;;;;;1.73;1.17;;;20.40;99.90;;;;;;4998192;28;20587;-80
2022/05/03 09:13:18;;;;;;;1.23;1.10;;;20.10;99.90;;;;;;4995446;28;20250;-80
2022/05/03 09:15:50;;;;;;;0.57;0.57;;;20.50;99.90;;;;;;5006534;28;20211;-80
2022/05/03 09:18:27;;;;;;;1.47;1.37;;;21.20;99.90;;;;;;4999966;28;20191;-80
2022/05/03 09:23:49;;;;;;;1.40;1.30;;;20.40;99.90;;;;;;5001215;28;20230;-80
2022/05/03 09:26:16;;;;;;;6.23;1.60;;;20.40;99.90;;;;;;5001408;28;20194;-80
2022/05/03 09:29:14;;;;;;;0.77;0.77;;;21.00;99.90;;;;;;5014703;28;20540;-80
2022/05/03 09:31:47;;;;;;;1.47;1.37;;;21.60;99.90;;;;;;5000715;28;20206;-79
2022/05/03 09:34:19;;;;;;;1.87;0.87;;;21.10;99.90;;;;;;5004940;28;20266;-79
2022/05/03 09:36:58;;;;;;;0.80;0.73;;;21.20;99.90;;;;;;5016249;28;20179;-80
2022/05/03 09:39:29;;;;;;;1.60;1.23;;;21.30;99.90;;;;;;5005560;28;20330;-80
2022/05/03 09:42:15;;;;;;;0.93;0.90;;;21.30;99.90;;;;;;5001571;28;20570;-79
2022/05/03 09:45:09;;;;;;;4.50;1.80;;;21.60;99.90;;;;;;4998481;28;20187;-80
2022/05/03 09:47:51;;;;;;;1.17;0.70;;;21.20;99.90;;;;;;5015047;28;20188;-80
2022/05/03 09:50:32;;;;;;;0.67;0.67;;;21.20;99.90;;;;;;5000970;28;20184;-80
2022/05/03 09:53:07;;;;;;;0.87;0.83;;;21.30;99.90;;;;;;4999127;28;20198;-79
2022/05/03 09:55:36;;;;;;;2.83;1.90;;;21.10;99.90;;;;;;5005413;28;20994;-79
2022/05/03 09:58:09;;;;;;;1.73;1.17;;;20.50;99.90;;;;;;5004322;28;20218;-80
2022/05/03 10:00:37;;;;;;;0.50;0.50;;;21.20;99.90;;;;;;5001826;28;20265;-82
2022/05/03 10:03:04;;;;;;;1.03;1.03;;;21.10;99.90;;;;;;4999480;28;20211;-82
2022/05/03 10:05:30;;;;;;;1.53;1.00;;;21.00;99.90;;;;;;5001683;28;21022;-81
2022/05/03 10:07:56;;;;;;;0.60;0.60;;;21.00;99.90;;;;;;5000835;28;20198;-81
2022/05/03 10:10:24;;;;;;;1.00;1.00;;;21.40;99.90;;;;;;5006632;28;20295;-82
2022/05/03 10:12:50;;;;;;;0.77;0.73;;;21.50;99.90;;;;;;5000999;28;20257;-82
2022/05/03 10:21:04;;;;;;;1.90;1.27;;;20.70;99.90;;;;;;5001138;28;20186;-82
2022/05/03 10:23:32;;;;;;;0.97;0.90;;;20.70;99.90;;;;;;4997497;28;20187;-81
2022/05/03 10:26:05;;;;;;;1.60;1.50;;;20.40;99.90;;;;;;4999520;28;20207;-83
2022/05/03 10:29:08;;;;;;;2.37;1.40;;;20.80;99.90;;;;;;5000441;28;20588;-84
2022/05/03 10:31:52;;;;;;;0.97;0.97;;;21.60;99.90;;;;;;5003294;28;20766;-83
2022/05/03 10:34:42;;;;;;;0.77;0.60;;;21.50;99.90;;;;;;5014890;28;20728;-84
2022/05/03 10:37:10;;;;;;;1.57;0.83;;;21.20;99.90;;;;;;4997419;28;20287;-81
2022/05/03 10:39:54;;;;;;;1.80;0.97;;;20.90;99.90;;;;;;5015561;28;20226;-81
2022/05/03 10:42:23;;;;;;;0.77;0.77;;;21.40;99.90;;;;;;5005605;28;20581;-81
2022/05/03 10:45:06;;;;;;;0.87;0.87;;;21.60;99.90;;;;;;5007598;28;20198;-81
2022/05/03 10:47:54;;;;;;;1.23;1.13;;;21.00;99.90;;;;;;5008915;28;20833;-81
2022/05/03 10:50:23;;;;;;;1.13;1.00;;;21.10;99.90;;;;;;5003898;28;20180;-81
2022/05/03 10:53:07;;;;;;;2.93;1.10;;;21.60;99.90;;;;;;5000859;28;20225;-81
2022/05/03 10:55:40;;;;;;;1.50;1.30;;;22.00;99.90;;;;;;5016656;28;20213;-82
2022/05/03 10:58:26;;;;;;;0.93;0.90;;;21.10;99.90;;;;;;5000578;28;20187;-82
2022/05/03 11:01:20;;;;;;;0.90;0.90;;;21.70;99.90;;;;;;5001225;28;20175;-82
2022/05/03 11:03:48;;;;;;;0.87;0.80;;;21.60;99.90;;;;;;5016394;28;20184;-81
2022/05/03 11:06:21;;;;;;;1.10;1.00;;;21.30;99.90;;;;;;5001019;28;20203;-83
2022/05/03 11:09:05;;;;;;;1.00;0.90;;;21.60;99.90;;;;;;5019271;28;20199;-83
2022/05/03 11:11:39;;;;;;;0.80;0.80;;;21.80;99.90;;;;;;5016204;28;20693;-83
2022/05/03 11:14:24;;;;;;;2.57;1.40;;;21.50;99.90;;;;;;5013191;28;20282;-84
2022/05/03 11:16:50;;;;;;;0.87;0.83;;;21.50;99.90;;;;;;5014122;28;20190;-83
2022/05/03 11:19:16;;;;;;;1.10;1.10;;;21.30;99.90;;;;;;5013163;28;20182;-82
2022/05/03 11:21:42;;;;;;;1.17;0.83;;;21.40;99.90;;;;;;5015913;28;20235;-80
2022/05/03 11:24:36;;;;;;;1.10;1.00;;;21.20;99.90;;;;;;4998766;28;20687;-80
2022/05/03 11:27:03;;;;;;;1.00;1.00;;;21.10;99.90;;;;;;5008865;28;20222;-80
2022/05/03 11:29:37;;;;;;;4.03;1.60;;;21.60;99.90;;;;;;4996213;28;20705;-79
2022/05/03 11:32:06;;;;;;;1.33;1.20;;;21.40;99.90;;;;;;4996669;28;20210;-79
2022/05/03 11:34:32;;;;;;;1.20;1.10;;;21.80;99.90;;;;;;4996752;28;20190;-79
2022/05/03 11:36:58;;;;;;;1.13;1.07;;;21.40;99.90;;;;;;4998237;28;20270;-80
2022/05/03 11:39:24;;;;;;;2.00;1.20;;;21.30;99.90;;;;;;4999108;28;20208;-80
2022/05/03 11:41:50;;;;;;;1.20;1.00;;;21.20;99.90;;;;;;4996350;28;20234;-80
2022/05/03 11:44:16;;;;;;;1.90;1.20;;;21.40;99.90;;;;;;4998183;28;20280;-80
2022/05/03 11:46:44;;;;;;;1.83;0.90;;;21.60;99.90;;;;;;4997809;28;20207;-80
2022/05/03 11:49:11;;;;;;;1.67;1.03;;;21.70;99.90;;;;;;5000106;28;21132;-80
2022/05/03 11:57:20;;;;;;;1.03;0.87;;;21.20;99.90;;;;;;4999195;28;20367;-80
2022/05/03 11:59:49;;;;;;;1.50;1.40;;;21.80;99.90;;;;;;4999974;28;20184;-80
2022/05/03 12:02:23;;;;;;;1.33;1.10;;;21.40;99.90;;;;;;4997023;28;20230;-80
2022/05/03 12:05:02;;;;;;;0.80;0.80;;;21.80;99.90;;;;;;5012586;28;20179;-81
2022/05/03 12:07:29;;;;;;;1.60;1.30;;;22.10;99.90;;;;;;4997504;28;20191;-81
2022/05/03 12:09:55;;;;;;;1.20;1.10;;;22.20;99.90;;;;;;5003299;28;20192;-81
2022/05/03 12:12:42;;;;;;;0.80;0.80;;;21.60;99.90;;;;;;4996796;28;20681;-81
2022/05/03 12:15:26;;;;;;;1.13;0.93;;;21.30;99.90;;;;;;4999745;28;20679;-80
2022/05/03 12:17:59;;;;;;;1.77;1.43;;;21.30;99.90;;;;;;5004293;28;20187;-81
2022/05/03 12:20:25;;;;;;;0.87;0.87;;;21.50;99.90;;;;;;4998331;28;20292;-81
2022/05/03 12:23:14;;;;;;;0.70;0.67;;;21.50;99.90;;;;;;4998060;28;20346;-81
2022/05/03 12:25:41;;;;;;;0.87;0.83;;;21.50;99.90;;;;;;5001964;28;20211;-81
2022/05/03 12:28:07;;;;;;;0.70;0.70;;;21.80;99.90;;;;;;4998824;28;20183;-81
2022/05/03 12:30:33;;;;;;;1.20;1.00;;;21.60;99.90;;;;;;5004787;28;20192;-81
2022/05/03 12:33:07;;;;;;;1.13;1.03;;;21.50;99.90;;;;;;4996708;28;20684;-81
2022/05/03 12:35:35;;;;;;;0.90;0.90;;;21.40;99.90;;;;;;4997963;28;20826;-81
2022/05/03 12:38:13;;;;;;;4.23;1.23;;;21.50;99.90;;;;;;4998402;28;20242;-81
2022/05/03 12:40:43;;;;;;;2.60;1.27;;;21.70;99.90;;;;;;4997292;28;20190;-81
2022/05/03 12:43:12;;;;;;;2.27;1.50;;;21.20;99.90;;;;;;4996471;28;20215;-80
2022/05/03 12:45:39;;;;;;;0.40;0.40;;;21.10;99.90;;;;;;4995585;28;20724;-81
2022/05/03 12:48:06;;;;;;;2.93;1.83;;;21.70;99.90;;;;;;4999751;28;20293;-81
2022/05/03 12:50:31;;;;;;;0.93;0.83;;;21.40;99.90;;;;;;5005365;28;20191;-81
2022/05/03 12:52:57;;;;;;;1.23;1.07;;;21.90;99.90;;;;;;4999388;28;20237;-81
2022/05/03 12:55:23;;;;;;;1.63;1.00;;;21.90;99.90;;;;;;5003022;28;20201;-80
2022/05/03 13:00:36;;;;;;;1.93;1.10;;;22.40;99.90;;;;;;5002130;28;20202;-81
2022/05/03 13:03:10;;;;;;;0.60;0.60;;;22.20;99.90;;;;;;5006385;28;20195;-81
2022/05/03 13:05:35;;;;;;;1.23;0.80;;;22.70;99.90;;;;;;5006898;28;20302;-81
2022/05/03 13:08:01;;;;;;;1.27;1.17;;;22.60;99.90;;;;;;4999657;28;20273;-81
2022/05/03 13:10:26;;;;;;;1.03;1.03;;;22.10;99.90;;;;;;5002706;28;20180;-81
2022/05/03 13:12:52;;;;;;;0.60;0.60;;;21.60;99.90;;;;;;5004739;28;20226;-80
2022/05/03 13:15:17;;;;;;;1.37;0.80;;;21.90;99.90;;;;;;5014036;28;20183;-80
2022/05/03 13:17:43;;;;;;;0.90;0.90;;;21.70;99.90;;;;;;5014721;28;20657;-80
2022/05/03 13:20:09;;;;;;;2.23;1.60;;;21.50;99.90;;;;;;4999628;28;20218;-80
2022/05/03 13:22:34;;;;;;;1.40;1.00;;;21.60;99.90;;;;;;5002063;28;20766;-80
2022/05/03 13:25:00;;;;;;;1.23;1.13;;;22.10;99.90;;;;;;5006585;28;20838;-80
2022/05/03 13:27:25;;;;;;;0.60;0.60;;;22.20;99.90;;;;;;5016225;28;20273;-80
2022/05/03 13:29:51;;;;;;;1.00;0.90;;;22.20;99.90;;;;;;5003942;28;20184;-80
2022/05/03 13:32:16;;;;;;;0.67;0.67;;;22.50;99.90;;;;;;5005948;28;20318;-80
2022/05/03 13:34:42;;;;;;;1.13;1.03;;;22.40;99.90;;;;;;5014878;28;20282;-81
2022/05/03 13:42:36;;;;;;;0.80;0.80;;;22.10;99.90;;;;;;5000055;28;20589;-80
2022/05/03 13:45:02;;;;;;;0.90;0.70;;;21.70;99.90;;;;;;5005959;28;20187;-80
2022/05/03 13:47:27;;;;;;;0.50;0.50;;;21.30;99.90;;;;;;5001035;28;20225;-81
2022/05/03 13:49:53;;;;;;;0.73;0.73;;;21.50;99.90;;;;;;4999234;28;20692;-80
2022/05/03 13:52:18;;;;;;;1.23;1.13;;;21.30;99.90;;;;;;4999373;28;20203;-81
2022/05/03 13:54:44;;;;;;;0.80;0.77;;;21.20;99.90;;;;;;4999671;28;20713;-81